CheckWX is a tool to help pilots better visualize weather data.  It is not intended as a substitute for an official pre-flight weather briefing.

14:54:50 UTC

LGSA TAF
Chania International Airport
Souda, Greece
TAF LGSA 221100Z 2212/2312 27015KT 9999 SCT020 TEMPO 2212/2216 27015G25KT

Nov-22@
12:00 UTC

Nov-22 @ 12:00 UTC

Nov-23@
12:00 UTC

Nov-23 @ 12:00 UTC

TAF LGSA 221100Z 2212/2312 27015KT 9999 SCT020
Wind
  • 270° at 15 KTS
Cloud Levels
  • Scattered at 2,000' AGL

Nov-22@
12:00 UTC

Nov-22 @ 12:00 UTC

Nov-22@
16:00 UTC

Nov-22 @ 16:00 UTC

TEMPO 2212/2216 27015G25KT

Temporary

Temporary Changes expected for less than half the time period

Wind
  • 270° at 15 KTS
  • {Gusting to 25 KTS